Gramercy, Louisiana
Current Conditions -  °F | °C
As of 10:55 AM on Thursday 30 Oct 2014 (Local Time) from K1L0 Reporting Station
Clear Clear  
Wind Chill: 71°   Ceiling: Unl
Heat Index: 71°   Visibility: 10mi
Dew Point: 42°   Wind: 13mph
Humidity: 36%   Direction: 40°NE
Pressure: 30.13"   Gusts: 17mph
Location:  30.05°N, 90.69°W
Report Text: K1L0 301555Z AUTO 04011G15KT 10SM CLR 22/06 A3013 RMK AO2 T02150057
Loading
Personal Weather Stations






























Interactive Weather Map
Tropical Storm Tracking
New forecast layout! Learn more

10-Day Weather Forecast

Advertisements
Track Severe Weather on mobile